Time;durP1;ratioP1;P1;durP2;ratioP2;P2;SDS_P1;SDS_P2;PMS_P1;PMS_P2;Temp;Humidity;BMP_temperature;BMP_pressure;BME280_temperature;BME280_humidity;BME280_pressure;Samples;Min_cycle;Max_cycle;Signal;HPM_P1;HPM_P2
2023/08/06 00:01:46;;;;;;;7.47;3.03;;;;;;;;;;5041945;28;20056;-75
2023/08/06 00:04:16;;;;;;;8.75;3.70;;;;;;;;;;5042361;28;20060;-74
2023/08/06 00:06:47;;;;;;;7.15;2.80;;;;;;;;;;5042558;28;20067;-75
2023/08/06 00:09:18;;;;;;;8.73;3.22;;;;;;;;;;5041447;28;20053;-74
2023/08/06 00:11:48;;;;;;;8.27;2.90;;;;;;;;;;5041848;28;20048;-75
2023/08/06 00:14:19;;;;;;;9.73;2.72;;;;;;;;;;5041561;28;20330;-74
2023/08/06 00:16:50;;;;;;;9.70;3.13;;;;;;;;;;5041371;28;20500;-74
2023/08/06 00:19:21;;;;;;;8.82;3.03;;;;;;;;;;5041226;28;20056;-75
2023/08/06 00:21:51;;;;;;;9.75;2.70;;;;;;;;;;5041252;28;20052;-75
2023/08/06 00:24:22;;;;;;;8.88;3.10;;;;;;;;;;5039993;28;20499;-75
2023/08/06 00:26:52;;;;;;;7.78;3.05;;;;;;;;;;5039651;28;20072;-74
2023/08/06 00:29:23;;;;;;;8.45;2.63;;;;;;;;;;5038889;28;20044;-75
2023/08/06 00:31:54;;;;;;;6.60;2.47;;;;;;;;;;5041298;28;20049;-75
2023/08/06 00:34:26;;;;;;;6.97;2.53;;;;;;;;;;5040041;28;20622;-74
2023/08/06 00:36:56;;;;;;;6.90;2.67;;;;;;;;;;5038951;28;20041;-75
2023/08/06 00:39:26;;;;;;;12.63;2.67;;;;;;;;;;5041827;28;20060;-74
2023/08/06 00:42:00;;;;;;;5.75;2.30;;;;;;;;;;5039288;28;20436;-74
2023/08/06 00:44:31;;;;;;;6.22;2.92;;;;;;;;;;5040238;28;20048;-75
2023/08/06 00:47:02;;;;;;;8.07;2.55;;;;;;;;;;5057273;28;20043;-74
2023/08/06 00:49:33;;;;;;;7.43;2.58;;;;;;;;;;5059722;28;20044;-74
2023/08/06 00:52:06;;;;;;;6.45;2.83;;;;;;;;;;5057166;28;20541;-74
2023/08/06 00:54:38;;;;;;;7.60;3.17;;;;;;;;;;5073354;28;20448;-75
2023/08/06 00:57:09;;;;;;;9.95;3.20;;;;;;;;;;5062400;28;20119;-74
2023/08/06 00:59:41;;;;;;;6.35;2.63;;;;;;;;;;5059536;28;20407;-73
2023/08/06 01:02:11;;;;;;;8.40;3.40;;;;;;;;;;5061623;28;20511;-74
2023/08/06 01:04:42;;;;;;;8.88;3.33;;;;;;;;;;5060186;28;20601;-74
2023/08/06 01:07:38;;;;;;;10.90;3.33;;;;;;;;;;5060445;28;20044;-74
2023/08/06 01:10:19;;;;;;;5.68;2.85;;;;;;;;;;5060132;28;20054;-75
2023/08/06 01:13:14;;;;;;;8.65;2.95;;;;;;;;;;5059641;28;20063;-74
2023/08/06 01:15:55;;;;;;;7.55;2.53;;;;;;;;;;5060006;28;20495;-75
2023/08/06 01:18:26;;;;;;;7.13;2.40;;;;;;;;;;5060459;28;20527;-75
2023/08/06 01:20:57;;;;;;;6.93;2.78;;;;;;;;;;5059377;28;20064;-75
2023/08/06 01:23:30;;;;;;;6.88;3.03;;;;;;;;;;5060425;28;20056;-75
2023/08/06 01:26:20;;;;;;;6.53;3.10;;;;;;;;;;5059810;28;20045;-76
2023/08/06 01:28:56;;;;;;;9.63;3.17;;;;;;;;;;5060414;28;20052;-75
2023/08/06 01:31:32;;;;;;;7.32;2.95;;;;;;;;;;5061147;28;20059;-75
2023/08/06 01:34:07;;;;;;;14.30;3.95;;;;;;;;;;5059062;28;20049;-75
2023/08/06 01:36:39;;;;;;;8.52;3.50;;;;;;;;;;5065694;28;20052;-74
2023/08/06 01:39:10;;;;;;;8.75;3.38;;;;;;;;;;5067021;28;20067;-75
2023/08/06 01:41:42;;;;;;;9.65;3.55;;;;;;;;;;5066564;28;20040;-75
2023/08/06 01:44:12;;;;;;;12.85;3.65;;;;;;;;;;5066646;28;20045;-74
2023/08/06 01:46:43;;;;;;;11.32;3.58;;;;;;;;;;5067357;28;20052;-77
2023/08/06 01:49:13;;;;;;;9.90;3.53;;;;;;;;;;5068309;28;20403;-74
2023/08/06 01:52:21;;;;;;;9.27;4.50;;;;;;;;;;5067339;28;20036;-74
2023/08/06 01:54:52;;;;;;;10.07;3.58;;;;;;;;;;5065142;28;20060;-75
2023/08/06 01:57:22;;;;;;;11.05;3.85;;;;;;;;;;5067245;28;20504;-74
2023/08/06 01:59:52;;;;;;;13.73;4.05;;;;;;;;;;5065433;28;20063;-74
2023/08/06 02:02:22;;;;;;;13.98;4.78;;;;;;;;;;5066860;28;20059;-75
2023/08/06 02:04:53;;;;;;;14.75;4.30;;;;;;;;;;5065775;28;20431;-74
2023/08/06 02:07:23;;;;;;;10.52;4.00;;;;;;;;;;5065980;28;20513;-74
2023/08/06 02:09:54;;;;;;;8.15;3.90;;;;;;;;;;5066334;28;20418;-75
2023/08/06 02:12:24;;;;;;;12.43;4.07;;;;;;;;;;5068132;28;20428;-76
2023/08/06 02:14:55;;;;;;;10.65;4.40;;;;;;;;;;5066152;28;20048;-75
2023/08/06 02:17:26;;;;;;;9.85;4.15;;;;;;;;;;5065758;28;20045;-75
2023/08/06 02:19:57;;;;;;;11.85;4.13;;;;;;;;;;5064742;28;20056;-76
2023/08/06 02:22:27;;;;;;;12.90;4.47;;;;;;;;;;5064871;28;20045;-74
2023/08/06 02:24:58;;;;;;;11.52;4.32;;;;;;;;;;5066096;28;20059;-75
2023/08/06 02:27:28;;;;;;;11.70;4.25;;;;;;;;;;5064877;28;20056;-76
2023/08/06 02:29:59;;;;;;;7.57;3.97;;;;;;;;;;5063907;28;20062;-76
2023/08/06 02:32:31;;;;;;;8.70;4.57;;;;;;;;;;5066308;28;20430;-75
2023/08/06 02:35:03;;;;;;;9.57;4.22;;;;;;;;;;5065334;28;20410;-75
2023/08/06 02:37:35;;;;;;;12.45;4.45;;;;;;;;;;5064524;28;20060;-76
2023/08/06 02:40:06;;;;;;;9.80;4.82;;;;;;;;;;5065759;28;20057;-74
2023/08/06 02:42:36;;;;;;;10.68;4.90;;;;;;;;;;5066838;28;20749;-75
2023/08/06 02:45:08;;;;;;;14.65;4.53;;;;;;;;;;5065731;28;20071;-75
2023/08/06 02:47:39;;;;;;;14.02;5.00;;;;;;;;;;5062544;28;20079;-76
2023/08/06 02:50:09;;;;;;;10.55;4.85;;;;;;;;;;5062066;28;20063;-75
2023/08/06 02:52:40;;;;;;;15.50;5.88;;;;;;;;;;5063620;28;20055;-76
2023/08/06 02:55:11;;;;;;;15.85;4.72;;;;;;;;;;5060961;28;20052;-76
2023/08/06 02:57:45;;;;;;;12.55;5.40;;;;;;;;;;5061039;28;20063;-76
2023/08/06 03:00:15;;;;;;;11.88;4.57;;;;;;;;;;5062009;28;20052;-76
2023/08/06 03:02:45;;;;;;;11.40;4.65;;;;;;;;;;5062251;28;20057;-76
2023/08/06 03:05:34;;;;;;;13.50;5.28;;;;;;;;;;5061404;28;20171;-76
2023/08/06 03:08:04;;;;;;;16.90;5.00;;;;;;;;;;5062027;28;20059;-76
2023/08/06 03:10:37;;;;;;;16.25;5.15;;;;;;;;;;5060785;28;20056;-76
2023/08/06 03:13:11;;;;;;;14.45;5.18;;;;;;;;;;5060762;28;20052;-76
2023/08/06 03:15:43;;;;;;;13.18;5.85;;;;;;;;;;5060491;28;20057;-76
2023/08/06 03:18:14;;;;;;;12.05;5.60;;;;;;;;;;5061546;28;20423;-75
2023/08/06 03:20:45;;;;;;;11.77;5.88;;;;;;;;;;5060700;28;20745;-77
2023/08/06 03:23:16;;;;;;;15.63;6.15;;;;;;;;;;5061989;28;20411;-76
2023/08/06 03:25:48;;;;;;;12.20;5.38;;;;;;;;;;5061538;28;20422;-75
2023/08/06 03:28:18;;;;;;;15.88;5.97;;;;;;;;;;5060579;28;20056;-75
2023/08/06 03:30:58;;;;;;;17.05;6.75;;;;;;;;;;5060794;28;20064;-76
2023/08/06 03:33:32;;;;;;;17.33;5.40;;;;;;;;;;5061035;28;20519;-75
2023/08/06 03:36:06;;;;;;;17.33;6.07;;;;;;;;;;5061470;28;20392;-75
2023/08/06 03:38:37;;;;;;;17.77;6.30;;;;;;;;;;5060219;28;20119;-76
2023/08/06 03:41:09;;;;;;;14.55;5.85;;;;;;;;;;5060491;28;20088;-76
2023/08/06 03:43:40;;;;;;;18.38;5.82;;;;;;;;;;5060464;28;20419;-77
2023/08/06 03:46:17;;;;;;;11.18;5.47;;;;;;;;;;5060700;28;20048;-73
2023/08/06 03:48:48;;;;;;;11.63;5.70;;;;;;;;;;5063346;28;20044;-76
2023/08/06 03:51:18;;;;;;;15.27;6.53;;;;;;;;;;5063080;28;20048;-75
2023/08/06 03:53:50;;;;;;;17.45;6.03;;;;;;;;;;5063592;28;20514;-76
2023/08/06 03:56:21;;;;;;;14.07;6.10;;;;;;;;;;5061594;28;20056;-75
2023/08/06 03:58:52;;;;;;;14.23;5.88;;;;;;;;;;5062885;28;20044;-75
2023/08/06 04:01:22;;;;;;;11.75;5.50;;;;;;;;;;5063858;28;20052;-75
2023/08/06 04:03:53;;;;;;;16.27;5.57;;;;;;;;;;5061406;28;20048;-75
2023/08/06 04:06:24;;;;;;;19.65;5.65;;;;;;;;;;5062103;28;20040;-75
2023/08/06 04:08:55;;;;;;;24.00;5.95;;;;;;;;;;5062866;28;20047;-76
2023/08/06 04:11:26;;;;;;;16.48;6.03;;;;;;;;;;5062817;28;20130;-75
2023/08/06 04:13:57;;;;;;;12.98;6.20;;;;;;;;;;5060994;28;20044;-75
2023/08/06 04:16:34;;;;;;;12.63;5.95;;;;;;;;;;5060874;28;20499;-77
2023/08/06 04:19:05;;;;;;;19.08;5.93;;;;;;;;;;5062997;28;20045;-76
2023/08/06 04:21:35;;;;;;;17.60;6.38;;;;;;;;;;5062527;28;20052;-75
2023/08/06 04:24:05;;;;;;;18.23;6.50;;;;;;;;;;5062852;28;20064;-75
2023/08/06 04:26:37;;;;;;;14.75;6.70;;;;;;;;;;5060342;28;20087;-76
2023/08/06 04:29:08;;;;;;;22.92;6.30;;;;;;;;;;5061137;28;20526;-76
2023/08/06 04:31:39;;;;;;;22.73;6.55;;;;;;;;;;5061381;28;20060;-75
2023/08/06 04:34:09;;;;;;;17.98;5.95;;;;;;;;;;5061478;28;20059;-73
2023/08/06 04:36:40;;;;;;;11.57;5.80;;;;;;;;;;5060810;28;20056;-73
2023/08/06 04:39:11;;;;;;;46.15;6.97;;;;;;;;;;5062042;28;20395;-78
2023/08/06 04:41:47;;;;;;;18.77;6.53;;;;;;;;;;5060599;28;20052;-76
2023/08/06 04:44:17;;;;;;;27.05;7.15;;;;;;;;;;5060628;28;20087;-74
2023/08/06 04:46:48;;;;;;;26.52;6.25;;;;;;;;;;5062153;28;20055;-73
2023/08/06 04:49:21;;;;;;;19.08;6.53;;;;;;;;;;5062576;28;20499;-73
2023/08/06 04:51:51;;;;;;;16.00;6.93;;;;;;;;;;5062278;28;21088;-77
2023/08/06 04:54:22;;;;;;;25.80;7.10;;;;;;;;;;5062389;28;20052;-73
2023/08/06 04:56:53;;;;;;;16.63;7.10;;;;;;;;;;5062348;28;20052;-76
2023/08/06 04:59:24;;;;;;;22.58;7.53;;;;;;;;;;5062356;28;20056;-74
2023/08/06 05:01:55;;;;;;;17.13;6.32;;;;;;;;;;5061610;28;20055;-75
2023/08/06 05:04:25;;;;;;;29.23;7.45;;;;;;;;;;5061738;28;20060;-74
2023/08/06 05:06:56;;;;;;;35.75;7.70;;;;;;;;;;5062594;28;20044;-76
2023/08/06 05:09:27;;;;;;;24.20;7.15;;;;;;;;;;5060385;28;20052;-77
2023/08/06 05:11:57;;;;;;;22.05;7.00;;;;;;;;;;5061265;28;20415;-75
2023/08/06 05:14:28;;;;;;;89.22;9.65;;;;;;;;;;5061513;28;20056;-75
2023/08/06 05:17:05;;;;;;;59.03;8.70;;;;;;;;;;5061443;28;20381;-75
2023/08/06 05:19:36;;;;;;;47.40;8.60;;;;;;;;;;5062045;28;20043;-75
2023/08/06 05:22:06;;;;;;;31.60;8.15;;;;;;;;;;5060388;28;20431;-75
2023/08/06 05:24:36;;;;;;;28.95;8.13;;;;;;;;;;5062158;28;20751;-74
2023/08/06 05:27:06;;;;;;;41.88;7.18;;;;;;;;;;5061852;28;20049;-76
2023/08/06 05:29:37;;;;;;;30.63;6.97;;;;;;;;;;5062240;28;20053;-75
2023/08/06 05:32:09;;;;;;;39.30;7.15;;;;;;;;;;5062058;28;20036;-74
2023/08/06 05:34:41;;;;;;;84.03;7.88;;;;;;;;;;5061403;28;20508;-76
2023/08/06 05:37:11;;;;;;;82.80;7.53;;;;;;;;;;5061443;28;20180;-75
2023/08/06 05:39:42;;;;;;;67.75;8.65;;;;;;;;;;5061272;28;20057;-74
2023/08/06 05:42:13;;;;;;;83.55;9.13;;;;;;;;;;5061885;28;20506;-75
2023/08/06 05:44:43;;;;;;;51.60;7.93;;;;;;;;;;5061861;28;20044;-74
2023/08/06 05:47:14;;;;;;;43.20;7.80;;;;;;;;;;5061522;28;20032;-75
2023/08/06 05:49:43;;;;;;;53.38;8.02;;;;;;;;;;5061542;28;20067;-74
2023/08/06 05:52:14;;;;;;;51.75;8.60;;;;;;;;;;5065454;28;20044;-74
2023/08/06 05:54:46;;;;;;;79.03;8.45;;;;;;;;;;5072933;28;20052;-75
2023/08/06 05:57:17;;;;;;;91.57;10.15;;;;;;;;;;5080186;28;20036;-74
2023/08/06 05:59:48;;;;;;;36.67;6.60;;;;;;;;;;5068701;28;20499;-74
2023/08/06 06:02:18;;;;;;;126.25;9.82;;;;;;;;;;5062075;28;20053;-73
2023/08/06 06:04:50;;;;;;;78.75;9.27;;;;;;;;;;5061733;28;20044;-74
2023/08/06 06:07:20;;;;;;;53.70;9.10;;;;;;;;;;5060636;28;20419;-73
2023/08/06 06:09:50;;;;;;;170.60;10.35;;;;;;;;;;5060952;28;20059;-75
2023/08/06 06:12:22;;;;;;;48.40;8.40;;;;;;;;;;5061264;28;20055;-74
2023/08/06 06:14:52;;;;;;;52.80;8.55;;;;;;;;;;5061081;28;20049;-74
2023/08/06 06:17:23;;;;;;;111.45;9.88;;;;;;;;;;5060088;28;20052;-75
2023/08/06 06:19:54;;;;;;;88.85;8.80;;;;;;;;;;5061123;28;20048;-75
2023/08/06 06:22:24;;;;;;;63.08;8.88;;;;;;;;;;5061191;28;20053;-76
2023/08/06 06:24:57;;;;;;;106.43;8.75;;;;;;;;;;5064844;28;20056;-74
2023/08/06 06:27:29;;;;;;;102.93;9.55;;;;;;;;;;5064824;28;20052;-75
2023/08/06 06:29:59;;;;;;;112.00;9.52;;;;;;;;;;5065296;28;20056;-76
2023/08/06 06:32:29;;;;;;;86.72;8.68;;;;;;;;;;5064993;28;20051;-76
2023/08/06 06:35:00;;;;;;;78.35;8.95;;;;;;;;;;5063689;28;20049;-75
2023/08/06 06:37:31;;;;;;;118.57;9.25;;;;;;;;;;5064280;28;20040;-75
2023/08/06 06:40:03;;;;;;;68.00;8.80;;;;;;;;;;5064534;28;20388;-73
2023/08/06 06:42:34;;;;;;;124.57;9.85;;;;;;;;;;5064868;28;20412;-73
2023/08/06 06:45:07;;;;;;;80.85;8.55;;;;;;;;;;5063148;28;20063;-76
2023/08/06 06:47:38;;;;;;;141.68;9.85;;;;;;;;;;5065013;28;20044;-74
2023/08/06 06:50:09;;;;;;;72.32;8.73;;;;;;;;;;5064651;28;20491;-74
2023/08/06 06:52:41;;;;;;;94.10;9.50;;;;;;;;;;5064248;28;20052;-76
2023/08/06 06:55:11;;;;;;;161.38;10.02;;;;;;;;;;5063227;28;20060;-76
2023/08/06 06:57:42;;;;;;;241.43;11.85;;;;;;;;;;5046804;28;20063;-74
2023/08/06 07:00:13;;;;;;;142.13;10.90;;;;;;;;;;5064060;28;20055;-73
2023/08/06 07:02:44;;;;;;;160.13;9.85;;;;;;;;;;5063803;28;20044;-73
2023/08/06 07:05:14;;;;;;;226.88;12.32;;;;;;;;;;5064228;28;20048;-76
2023/08/06 07:07:45;;;;;;;121.50;10.07;;;;;;;;;;5064400;28;20072;-73
2023/08/06 07:10:16;;;;;;;213.13;11.63;;;;;;;;;;5062933;28;20052;-76
2023/08/06 07:12:46;;;;;;;216.00;10.82;;;;;;;;;;5063629;28;20052;-74
2023/08/06 07:15:17;;;;;;;123.70;10.10;;;;;;;;;;5063665;28;20045;-74
2023/08/06 07:17:48;;;;;;;139.82;9.90;;;;;;;;;;5063795;28;20045;-74
2023/08/06 07:20:19;;;;;;;160.88;10.05;;;;;;;;;;5064260;28;20056;-75
2023/08/06 07:22:50;;;;;;;112.97;8.85;;;;;;;;;;5064109;28;20048;-73
2023/08/06 07:25:20;;;;;;;157.80;10.88;;;;;;;;;;5064485;28;20053;-74
2023/08/06 07:27:51;;;;;;;194.07;10.10;;;;;;;;;;5063965;28;20530;-73
2023/08/06 07:30:21;;;;;;;169.90;10.23;;;;;;;;;;5064546;28;20525;-75
2023/08/06 07:32:53;;;;;;;101.38;9.50;;;;;;;;;;5063767;28;20076;-73
2023/08/06 07:35:23;;;;;;;90.82;8.80;;;;;;;;;;5062968;28;20461;-76
2023/08/06 07:37:54;;;;;;;275.92;12.55;;;;;;;;;;5062868;28;20545;-74
2023/08/06 07:40:25;;;;;;;108.40;9.93;;;;;;;;;;5060338;28;20048;-74
2023/08/06 07:42:55;;;;;;;266.38;11.35;;;;;;;;;;5063615;28;20041;-74
2023/08/06 07:45:26;;;;;;;345.40;12.68;;;;;;;;;;5063578;28;20051;-73
2023/08/06 07:47:57;;;;;;;242.75;10.13;;;;;;;;;;5062533;28;20519;-75
2023/08/06 07:50:29;;;;;;;318.35;14.80;;;;;;;;;;5062282;28;20052;-73
2023/08/06 07:53:00;;;;;;;177.75;9.55;;;;;;;;;;5062819;28;20408;-76
2023/08/06 07:55:31;;;;;;;243.80;10.73;;;;;;;;;;5063549;28;20430;-76
2023/08/06 07:58:02;;;;;;;157.48;8.50;;;;;;;;;;5063483;28;20044;-76
2023/08/06 08:00:33;;;;;;;226.90;11.13;;;;;;;;;;5063611;28;20643;-74
2023/08/06 08:03:04;;;;;;;170.68;8.77;;;;;;;;;;5063275;28;20048;-74
2023/08/06 08:05:34;;;;;;;100.20;8.70;;;;;;;;;;5063522;28;20065;-75
2023/08/06 08:08:05;;;;;;;155.77;9.70;;;;;;;;;;5062401;28;20040;-76
2023/08/06 08:10:37;;;;;;;22.73;6.18;;;;;;;;;;5062186;28;20051;-75
2023/08/06 08:13:08;;;;;;;17.17;6.18;;;;;;;;;;5060650;28;20053;-76
2023/08/06 08:15:39;;;;;;;76.30;8.02;;;;;;;;;;5062390;28;20507;-76
2023/08/06 08:18:09;;;;;;;237.23;11.68;;;;;;;;;;5062905;28;20045;-76
2023/08/06 08:20:40;;;;;;;149.05;8.02;;;;;;;;;;5061206;28;20052;-73
2023/08/06 08:23:10;;;;;;;120.47;8.05;;;;;;;;;;5061062;28;20059;-76
2023/08/06 08:25:40;;;;;;;92.03;8.30;;;;;;;;;;5062444;28;20052;-75
2023/08/06 08:28:11;;;;;;;47.38;7.00;;;;;;;;;;5060443;28;20078;-73
2023/08/06 08:30:42;;;;;;;141.52;9.85;;;;;;;;;;5062191;28;20052;-74
2023/08/06 08:33:14;;;;;;;198.20;10.73;;;;;;;;;;5062778;28;20055;-76
2023/08/06 08:35:47;;;;;;;106.40;7.40;;;;;;;;;;5062753;28;20048;-74
2023/08/06 08:38:17;;;;;;;83.85;7.40;;;;;;;;;;5062843;28;20103;-77
2023/08/06 08:40:50;;;;;;;71.45;7.20;;;;;;;;;;5061979;28;20393;-76
2023/08/06 08:43:24;;;;;;;75.82;8.20;;;;;;;;;;5062614;28;20574;-75
2023/08/06 08:45:55;;;;;;;80.03;7.93;;;;;;;;;;5061120;28;20052;-74
2023/08/06 08:48:27;;;;;;;72.97;7.20;;;;;;;;;;5061911;28;20048;-76
2023/08/06 08:50:58;;;;;;;76.05;7.25;;;;;;;;;;5061591;28;20044;-72
2023/08/06 08:53:32;;;;;;;102.25;8.48;;;;;;;;;;5062656;28;20051;-75
2023/08/06 08:56:02;;;;;;;91.88;9.40;;;;;;;;;;5060535;28;20048;-74
2023/08/06 08:58:33;;;;;;;78.03;7.38;;;;;;;;;;5062039;28;20063;-74
2023/08/06 09:01:05;;;;;;;30.45;6.10;;;;;;;;;;5061736;28;20056;-75
2023/08/06 09:03:37;;;;;;;12.25;6.82;;;;;;;;;;5061908;28;20503;-75
2023/08/06 09:06:11;;;;;;;11.70;6.20;;;;;;;;;;5061670;28;20586;-77
2023/08/06 09:09:12;;;;;;;10.13;6.07;;;;;;;;;;5062130;28;20045;-74
2023/08/06 09:11:48;;;;;;;10.63;6.25;;;;;;;;;;5061503;28;20059;-76
2023/08/06 09:14:18;;;;;;;8.40;5.63;;;;;;;;;;5062356;28;20052;-74
2023/08/06 09:16:49;;;;;;;9.32;6.40;;;;;;;;;;5061812;28;20411;-74
2023/08/06 09:19:19;;;;;;;11.32;5.72;;;;;;;;;;5061637;28;20051;-74
2023/08/06 09:21:57;;;;;;;8.00;5.90;;;;;;;;;;5061582;28;20053;-74
2023/08/06 09:24:28;;;;;;;7.38;5.43;;;;;;;;;;5059552;28;20052;-74
2023/08/06 09:27:03;;;;;;;9.60;5.45;;;;;;;;;;5061587;28;20060;-74
2023/08/06 09:29:33;;;;;;;12.73;6.00;;;;;;;;;;5061472;28;20056;-76
2023/08/06 09:32:04;;;;;;;15.88;5.45;;;;;;;;;;5060081;28;20102;-75
2023/08/06 09:34:35;;;;;;;39.05;5.80;;;;;;;;;;5059822;28;20048;-75
2023/08/06 09:37:08;;;;;;;43.80;6.20;;;;;;;;;;5059258;28;20045;-75
2023/08/06 09:39:41;;;;;;;49.03;6.53;;;;;;;;;;5061109;28;20503;-76
2023/08/06 09:42:15;;;;;;;67.18;6.38;;;;;;;;;;5061801;28;20408;-74
2023/08/06 09:44:46;;;;;;;108.38;7.05;;;;;;;;;;5062046;28;20063;-75
2023/08/06 09:47:18;;;;;;;125.70;7.03;;;;;;;;;;5061797;28;20048;-74
2023/08/06 09:49:51;;;;;;;117.20;6.97;;;;;;;;;;5061288;28;20060;-76
2023/08/06 09:52:22;;;;;;;188.90;7.28;;;;;;;;;;5062155;28;20613;-76
2023/08/06 09:54:54;;;;;;;62.85;5.20;;;;;;;;;;5061801;28;20415;-76
2023/08/06 09:57:26;;;;;;;127.05;6.00;;;;;;;;;;5064016;28;20055;-72
2023/08/06 09:59:56;;;;;;;86.03;6.07;;;;;;;;;;5065260;28;20056;-73
2023/08/06 10:02:27;;;;;;;79.90;7.03;;;;;;;;;;5065100;28;20041;-73
2023/08/06 10:05:00;;;;;;;107.65;6.40;;;;;;;;;;5063325;28;20056;-74
2023/08/06 10:07:32;;;;;;;103.97;6.13;;;;;;;;;;5064637;28;20052;-75
2023/08/06 10:10:03;;;;;;;187.55;8.20;;;;;;;;;;5063995;28;20036;-74
2023/08/06 10:12:39;;;;;;;98.18;6.53;;;;;;;;;;5064233;28;20044;-75
2023/08/06 10:15:16;;;;;;;131.90;7.85;;;;;;;;;;5066114;28;20059;-74
2023/08/06 10:17:50;;;;;;;49.80;5.18;;;;;;;;;;5065446;28;20056;-73
2023/08/06 10:20:22;;;;;;;125.45;6.18;;;;;;;;;;5065139;28;20053;-76
2023/08/06 10:23:13;;;;;;;105.85;6.53;;;;;;;;;;5064286;28;20446;-73
2023/08/06 10:25:55;;;;;;;65.57;6.00;;;;;;;;;;5065093;28;20053;-75
2023/08/06 10:28:38;;;;;;;113.82;6.15;;;;;;;;;;5064849;28;20060;-75
2023/08/06 10:31:09;;;;;;;83.78;6.63;;;;;;;;;;5064448;28;20071;-75
2023/08/06 10:33:48;;;;;;;72.20;5.82;;;;;;;;;;5064907;28;20048;-75
2023/08/06 10:36:19;;;;;;;104.45;6.20;;;;;;;;;;5064825;28;20048;-73
2023/08/06 10:38:52;;;;;;;18.27;4.70;;;;;;;;;;5062332;28;20056;-72
2023/08/06 10:41:29;;;;;;;35.25;5.40;;;;;;;;;;5064461;28;20411;-77
2023/08/06 10:44:10;;;;;;;12.90;4.93;;;;;;;;;;5062916;28;20054;-76
2023/08/06 10:46:42;;;;;;;32.83;5.95;;;;;;;;;;5062553;28;20052;-74
2023/08/06 10:49:14;;;;;;;65.65;5.75;;;;;;;;;;5062834;28;20060;-74
2023/08/06 10:51:46;;;;;;;47.53;5.72;;;;;;;;;;5060933;28;20049;-77
2023/08/06 10:54:17;;;;;;;73.05;5.25;;;;;;;;;;5062452;28;20047;-77
2023/08/06 10:56:47;;;;;;;43.50;5.40;;;;;;;;;;5062563;28;20072;-75
2023/08/06 10:59:21;;;;;;;26.05;4.72;;;;;;;;;;5062772;28;20513;-76
2023/08/06 11:01:52;;;;;;;11.80;4.50;;;;;;;;;;5065590;28;20041;-77
2023/08/06 11:04:23;;;;;;;17.60;5.82;;;;;;;;;;5063792;28;20518;-74
2023/08/06 11:06:54;;;;;;;9.88;4.05;;;;;;;;;;5065872;28;20542;-76
2023/08/06 11:09:26;;;;;;;10.45;4.15;;;;;;;;;;5065573;28;20107;-75
2023/08/06 11:11:57;;;;;;;8.20;4.57;;;;;;;;;;5063280;28;20053;-73
2023/08/06 11:14:27;;;;;;;11.70;5.50;;;;;;;;;;5063776;28;20048;-74
2023/08/06 11:16:58;;;;;;;7.43;5.97;;;;;;;;;;5064203;28;20087;-74
2023/08/06 11:19:29;;;;;;;6.80;5.00;;;;;;;;;;5064297;28;20048;-76
2023/08/06 11:22:02;;;;;;;9.05;5.43;;;;;;;;;;5063230;28;20056;-76
2023/08/06 11:24:32;;;;;;;4.63;3.90;;;;;;;;;;5063222;28;20043;-76
2023/08/06 11:27:02;;;;;;;5.88;3.50;;;;;;;;;;5063511;28;20510;-75
2023/08/06 11:29:38;;;;;;;4.93;3.72;;;;;;;;;;5063100;28;20045;-72
2023/08/06 11:32:08;;;;;;;;;;;;;;;;;;5064036;28;20040;-74
2023/08/06 11:34:39;;;;;;;4.28;3.40;;;;;;;;;;5063688;28;19921;-74
2023/08/06 11:37:11;;;;;;;4.65;3.58;;;;;;;;;;5064024;28;20048;-74
2023/08/06 11:39:50;;;;;;;3.58;3.28;;;;;;;;;;5062800;28;20052;-76
2023/08/06 11:42:20;;;;;;;7.82;3.22;;;;;;;;;;5063265;28;20045;-74
2023/08/06 11:44:50;;;;;;;4.75;2.88;;;;;;;;;;5063180;28;20047;-74
2023/08/06 11:47:21;;;;;;;4.65;3.75;;;;;;;;;;5061649;28;20048;-75
2023/08/06 11:49:52;;;;;;;6.07;3.88;;;;;;;;;;5063494;28;20044;-73
2023/08/06 11:52:25;;;;;;;4.10;3.25;;;;;;;;;;5063915;28;20059;-75
2023/08/06 11:55:07;;;;;;;10.07;3.70;;;;;;;;;;5062098;28;20048;-75
2023/08/06 11:57:39;;;;;;;6.15;3.75;;;;;;;;;;5060426;28;20056;-75
2023/08/06 12:00:12;;;;;;;4.38;3.22;;;;;;;;;;5061383;28;20052;-73
2023/08/06 12:02:49;;;;;;;4.72;3.15;;;;;;;;;;5061632;28;20059;-75
2023/08/06 12:05:23;;;;;;;7.65;3.47;;;;;;;;;;5063434;28;20052;-74
2023/08/06 12:07:57;;;;;;;8.13;2.90;;;;;;;;;;5062785;28;20049;-74
2023/08/06 12:10:33;;;;;;;5.65;3.30;;;;;;;;;;5062253;28;20052;-75
2023/08/06 12:13:04;;;;;;;12.18;3.30;;;;;;;;;;5061728;28;20071;-75
2023/08/06 12:15:34;;;;;;;6.47;3.20;;;;;;;;;;5061888;28;20048;-77
2023/08/06 12:18:04;;;;;;;6.30;2.60;;;;;;;;;;5063322;28;20052;-75
2023/08/06 12:20:34;;;;;;;2.42;2.10;;;;;;;;;;5061866;28;20071;-75
2023/08/06 12:23:05;;;;;;;4.70;2.70;;;;;;;;;;5062456;28;20071;-74
2023/08/06 12:25:35;;;;;;;3.90;2.53;;;;;;;;;;5062027;28;20055;-75
2023/08/06 12:28:07;;;;;;;6.78;2.60;;;;;;;;;;5060022;28;20438;-75
2023/08/06 12:30:41;;;;;;;9.43;3.60;;;;;;;;;;5062602;28;20417;-74
2023/08/06 12:33:12;;;;;;;9.88;3.35;;;;;;;;;;5062219;28;20048;-74
2023/08/06 12:35:43;;;;;;;4.38;3.05;;;;;;;;;;5061480;28;20051;-78
2023/08/06 12:38:13;;;;;;;9.75;3.40;;;;;;;;;;5061216;28;20048;-76
2023/08/06 12:40:44;;;;;;;5.55;3.38;;;;;;;;;;5061648;28;20052;-72
2023/08/06 12:43:14;;;;;;;7.50;3.40;;;;;;;;;;5062385;28;20412;-74
2023/08/06 12:45:46;;;;;;;5.85;3.45;;;;;;;;;;5061882;28;20044;-74
2023/08/06 12:48:16;;;;;;;5.47;3.00;;;;;;;;;;5060771;28;20064;-74
2023/08/06 12:50:46;;;;;;;6.85;3.53;;;;;;;;;;5061885;28;20059;-75
2023/08/06 12:53:17;;;;;;;5.85;3.88;;;;;;;;;;5062324;28;20049;-74
2023/08/06 12:55:47;;;;;;;9.60;3.80;;;;;;;;;;5061509;28;20049;-74
2023/08/06 12:58:18;;;;;;;6.72;3.63;;;;;;;;;;5061134;28;20814;-74
2023/08/06 13:00:49;;;;;;;7.57;4.65;;;;;;;;;;5062275;28;20052;-78
2023/08/06 13:03:37;;;;;;;7.85;4.45;;;;;;;;;;5061327;28;20044;-74
2023/08/06 13:06:09;;;;;;;8.65;4.47;;;;;;;;;;5062108;28;20479;-74
2023/08/06 13:08:42;;;;;;;8.50;5.10;;;;;;;;;;5038380;28;20427;-75
2023/08/06 13:11:16;;;;;;;9.90;5.35;;;;;;;;;;5040776;28;20048;-74
2023/08/06 13:13:49;;;;;;;8.30;4.43;;;;;;;;;;5040732;28;20055;-74
2023/08/06 13:16:21;;;;;;;6.55;4.50;;;;;;;;;;5050713;28;20049;-74
2023/08/06 13:19:13;;;;;;;11.23;4.47;;;;;;;;;;5059559;28;20511;-78
2023/08/06 13:21:46;;;;;;;10.02;4.47;;;;;;;;;;5041600;28;20068;-75
2023/08/06 13:24:17;;;;;;;6.75;4.20;;;;;;;;;;5040033;28;20574;-75
2023/08/06 13:27:04;;;;;;;8.65;4.57;;;;;;;;;;5041245;28;20052;-74
2023/08/06 13:29:36;;;;;;;6.55;4.72;;;;;;;;;;5041106;28;20048;-73
2023/08/06 13:32:06;;;;;;;7.28;4.68;;;;;;;;;;5042259;28;20511;-73
2023/08/06 13:34:42;;;;;;;6.22;4.85;;;;;;;;;;5039955;28;20049;-75
2023/08/06 13:37:13;;;;;;;5.72;4.18;;;;;;;;;;5040112;28;20052;-75
2023/08/06 13:39:44;;;;;;;8.60;4.57;;;;;;;;;;5037845;28;20056;-74
2023/08/06 13:42:14;;;;;;;7.88;4.70;;;;;;;;;;5057316;28;20067;-74
2023/08/06 13:44:44;;;;;;;9.40;5.03;;;;;;;;;;5060535;28;20071;-74
2023/08/06 13:47:17;;;;;;;7.05;5.22;;;;;;;;;;5057937;28;20056;-75
2023/08/06 13:49:49;;;;;;;6.50;5.38;;;;;;;;;;5057093;28;20055;-75
2023/08/06 13:52:21;;;;;;;8.30;5.32;;;;;;;;;;5059224;28;20048;-75
2023/08/06 13:54:52;;;;;;;12.48;5.72;;;;;;;;;;5058634;28;20423;-74
2023/08/06 13:57:23;;;;;;;9.45;5.32;;;;;;;;;;5042502;28;20048;-74
2023/08/06 13:59:53;;;;;;;11.35;5.50;;;;;;;;;;5040467;28;20057;-74
2023/08/06 14:02:25;;;;;;;8.40;5.93;;;;;;;;;;5040419;28;20056;-74
2023/08/06 14:04:55;;;;;;;11.95;5.47;;;;;;;;;;5040997;28;20385;-75
2023/08/06 14:07:26;;;;;;;7.43;5.47;;;;;;;;;;5040036;28;20056;-78
2023/08/06 14:09:58;;;;;;;9.82;5.70;;;;;;;;;;5040457;28;20495;-74
2023/08/06 14:12:29;;;;;;;8.93;6.45;;;;;;;;;;5039277;28;20041;-77
2023/08/06 14:14:59;;;;;;;11.38;5.20;;;;;;;;;;5040277;28;20053;-74
2023/08/06 14:17:30;;;;;;;13.75;5.85;;;;;;;;;;5041068;28;20048;-75
2023/08/06 14:20:04;;;;;;;13.80;7.32;;;;;;;;;;5045689;28;20846;-74
2023/08/06 14:22:34;;;;;;;8.73;5.47;;;;;;;;;;5056753;28;20056;-74
2023/08/06 14:25:04;;;;;;;9.48;5.15;;;;;;;;;;5038985;28;20053;-75
2023/08/06 14:27:38;;;;;;;7.90;5.43;;;;;;;;;;5040652;28;20500;-78
2023/08/06 14:30:12;;;;;;;6.55;5.40;;;;;;;;;;5039940;28;20071;-75
2023/08/06 14:32:43;;;;;;;10.48;5.78;;;;;;;;;;5040875;28;20053;-74
2023/08/06 14:35:13;;;;;;;14.23;8.10;;;;;;;;;;5040640;28;20392;-75
2023/08/06 14:37:45;;;;;;;24.30;16.95;;;;;;;;;;5039956;28;20053;-76
2023/08/06 14:40:16;;;;;;;8.85;5.40;;;;;;;;;;5040277;28;20049;-75
2023/08/06 14:42:47;;;;;;;8.57;5.82;;;;;;;;;;5040863;28;20041;-75
2023/08/06 14:45:19;;;;;;;6.75;5.10;;;;;;;;;;5044382;28;20420;-78
2023/08/06 14:47:49;;;;;;;7.22;4.80;;;;;;;;;;5042588;28;20045;-77
2023/08/06 14:50:20;;;;;;;7.50;5.47;;;;;;;;;;5044407;28;20056;-76
2023/08/06 14:52:51;;;;;;;11.48;5.97;;;;;;;;;;5044310;28;20522;-75
2023/08/06 14:55:26;;;;;;;11.20;5.55;;;;;;;;;;5043339;28;20037;-75
2023/08/06 14:57:56;;;;;;;8.55;5.50;;;;;;;;;;5043478;28;20056;-75
2023/08/06 15:00:27;;;;;;;8.55;5.38;;;;;;;;;;5042875;28;20136;-75